createdAt,value
2023-04-26T00:00:11.568Z,1008.84
2023-04-26T00:02:15.647Z,1008.81
2023-04-26T00:03:15.618Z,1008.80
2023-04-26T00:05:19.674Z,1008.75
2023-04-26T00:06:19.511Z,1008.72
2023-04-26T00:08:24.004Z,1008.73
2023-04-26T00:09:24.011Z,1008.77
2023-04-26T00:10:24.058Z,1008.78
2023-04-26T00:11:23.979Z,1008.81
2023-04-26T00:12:23.974Z,1008.78
2023-04-26T00:13:23.989Z,1008.79
2023-04-26T00:14:23.957Z,1008.74
2023-04-26T00:15:23.950Z,1008.79
2023-04-26T00:16:24.023Z,1008.77
2023-04-26T00:17:23.954Z,1008.76
2023-04-26T00:18:23.936Z,1008.81
2023-04-26T00:19:23.931Z,1008.81
2023-04-26T00:20:23.957Z,1008.80
2023-04-26T00:21:23.923Z,1008.76
2023-04-26T00:22:23.928Z,1008.80
2023-04-26T00:23:23.932Z,1008.78
2023-04-26T00:24:23.897Z,1008.79
2023-04-26T00:25:23.897Z,1008.79
2023-04-26T00:26:23.886Z,1008.77
2023-04-26T00:27:23.898Z,1008.82
2023-04-26T00:28:23.876Z,1008.75
2023-04-26T00:29:23.864Z,1008.78
2023-04-26T00:30:23.857Z,1008.79
2023-04-26T00:31:23.862Z,1008.79
2023-04-26T00:32:23.871Z,1008.73
2023-04-26T00:33:23.864Z,1008.79
2023-04-26T00:34:23.831Z,1008.81
2023-04-26T00:35:23.848Z,1008.80
2023-04-26T00:36:23.858Z,1008.75
2023-04-26T00:37:23.817Z,1008.78
2023-04-26T00:38:23.814Z,1008.76
2023-04-26T00:39:23.801Z,1008.79
2023-04-26T00:40:23.812Z,1008.78
2023-04-26T00:41:23.788Z,1008.75
2023-04-26T00:42:23.791Z,1008.75
2023-04-26T00:43:23.794Z,1008.74
2023-04-26T00:44:23.788Z,1008.76
2023-04-26T00:45:23.802Z,1008.76
2023-04-26T00:46:23.786Z,1008.77
2023-04-26T00:47:23.862Z,1008.78
2023-04-26T00:48:23.757Z,1008.78
2023-04-26T00:49:23.735Z,1008.74
2023-04-26T00:50:23.761Z,1008.74
2023-04-26T00:51:23.733Z,1008.77
2023-04-26T00:52:23.769Z,1008.76
2023-04-26T00:53:23.763Z,1008.83
2023-04-26T00:54:23.724Z,1008.78
2023-04-26T00:55:23.865Z,1008.75
2023-04-26T00:56:23.696Z,1008.76
2023-04-26T00:57:23.699Z,1008.74
2023-04-26T00:58:23.705Z,1008.75
2023-04-26T00:59:23.702Z,1008.85
2023-04-26T01:00:23.679Z,1008.77
2023-04-26T01:01:23.705Z,1008.82
2023-04-26T01:02:23.722Z,1008.79
2023-04-26T01:03:23.868Z,1008.78
2023-04-26T01:04:23.848Z,1008.76
2023-04-26T01:05:23.664Z,1008.73
2023-04-26T01:06:23.644Z,1008.79
2023-04-26T01:07:23.641Z,1008.80
2023-04-26T01:08:23.624Z,1008.82
2023-04-26T01:09:23.635Z,1008.82
2023-04-26T01:10:23.638Z,1008.85
2023-04-26T01:11:23.620Z,1008.86
2023-04-26T01:12:24.397Z,1008.80
2023-04-26T01:13:23.580Z,1008.82
2023-04-26T01:14:23.587Z,1008.82
2023-04-26T01:15:23.584Z,1008.83
2023-04-26T01:16:23.578Z,1008.82
2023-04-26T01:17:23.641Z,1008.84
2023-04-26T01:18:23.549Z,1008.86
2023-04-26T01:19:23.564Z,1008.84
2023-04-26T01:20:23.561Z,1008.84
2023-04-26T01:21:23.537Z,1008.96
2023-04-26T01:22:23.533Z,1008.86
2023-04-26T01:23:23.549Z,1008.87
2023-04-26T01:24:23.555Z,1008.90
2023-04-26T01:25:23.539Z,1008.92
2023-04-26T01:26:23.518Z,1008.90
2023-04-26T01:27:23.505Z,1008.93
2023-04-26T01:28:23.519Z,1008.99
2023-04-26T01:29:23.493Z,1008.97
2023-04-26T01:30:23.504Z,1009.01
2023-04-26T01:31:23.558Z,1008.99
2023-04-26T01:32:23.481Z,1009.00
2023-04-26T01:33:23.473Z,1008.99
2023-04-26T01:34:23.443Z,1008.97
2023-04-26T01:35:23.457Z,1009.00
2023-04-26T01:36:23.435Z,1009.00
2023-04-26T01:37:23.466Z,1009.03
2023-04-26T01:38:23.421Z,1009.08
2023-04-26T01:39:23.450Z,1009.03
2023-04-26T01:40:23.452Z,1009.07
2023-04-26T01:41:23.418Z,1009.10
2023-04-26T01:42:23.396Z,1009.08
2023-04-26T01:43:23.416Z,1009.10
2023-04-26T01:44:23.408Z,1009.14
2023-04-26T01:45:23.377Z,1009.16
2023-04-26T01:46:23.421Z,1009.11
2023-04-26T01:47:23.391Z,1009.09
2023-04-26T01:48:23.350Z,1009.12
2023-04-26T01:49:23.336Z,1009.08
2023-04-26T01:50:23.345Z,1009.07
2023-04-26T01:51:23.354Z,1009.10
2023-04-26T01:52:23.366Z,1009.11
2023-04-26T01:53:23.343Z,1009.11
2023-04-26T01:54:23.330Z,1009.07
2023-04-26T01:55:23.303Z,1009.17
2023-04-26T01:56:23.299Z,1009.08
2023-04-26T01:57:23.348Z,1009.12
2023-04-26T01:58:23.301Z,1009.13
2023-04-26T01:59:23.388Z,1009.16
2023-04-26T02:00:23.276Z,1009.13
2023-04-26T02:01:23.312Z,1009.16
2023-04-26T02:02:23.280Z,1009.11
2023-04-26T02:03:23.318Z,1009.12
2023-04-26T02:04:23.254Z,1009.10
2023-04-26T02:05:23.270Z,1009.11
2023-04-26T02:06:23.265Z,1009.06
2023-04-26T02:07:23.220Z,1009.05
2023-04-26T02:08:23.225Z,1009.10
2023-04-26T02:09:23.265Z,1009.11
2023-04-26T02:10:23.223Z,1009.09
2023-04-26T02:11:23.221Z,1009.06
2023-04-26T02:12:23.200Z,1009.05
2023-04-26T02:13:23.197Z,1009.04
2023-04-26T02:14:23.190Z,1009.08
2023-04-26T02:15:23.174Z,1009.06
2023-04-26T02:16:23.214Z,1009.09
2023-04-26T02:17:23.154Z,1009.07
2023-04-26T02:18:23.154Z,1009.06
2023-04-26T02:19:23.156Z,1009.14
2023-04-26T02:20:23.144Z,1009.08
2023-04-26T02:21:23.142Z,1009.14
2023-04-26T02:22:23.146Z,1009.11
2023-04-26T02:23:23.158Z,1009.19
2023-04-26T02:24:23.126Z,1009.12
2023-04-26T02:25:23.113Z,1009.05
2023-04-26T02:26:23.111Z,1009.06
2023-04-26T02:27:23.095Z,1009.08
2023-04-26T02:28:23.114Z,1009.05
2023-04-26T02:29:36.412Z,1009.04
2023-04-26T02:30:23.102Z,1009.01
2023-04-26T02:31:23.355Z,1009.04
2023-04-26T02:32:23.131Z,1009.05
2023-04-26T02:33:23.079Z,1009.05
2023-04-26T02:34:23.054Z,1009.07
2023-04-26T02:35:23.070Z,1009.05
2023-04-26T02:36:23.035Z,1009.05
2023-04-26T02:37:23.045Z,1009.02
2023-04-26T02:38:23.022Z,1009.01
2023-04-26T02:39:23.028Z,1009.03
2023-04-26T02:40:23.041Z,1009.06
2023-04-26T02:41:23.004Z,1009.06
2023-04-26T02:42:23.120Z,1009.04
2023-04-26T02:43:23.000Z,1009.03
2023-04-26T02:44:22.981Z,1009.07
2023-04-26T02:45:22.981Z,1009.05
2023-04-26T02:46:22.979Z,1009.03
2023-04-26T02:47:22.998Z,1009.02
2023-04-26T02:48:22.956Z,1009.06
2023-04-26T02:49:22.982Z,1009.03
2023-04-26T02:50:22.941Z,1009.01
2023-04-26T02:51:22.945Z,1009.04
2023-04-26T02:52:22.945Z,1009.04
2023-04-26T02:53:22.932Z,1009.06
2023-04-26T02:54:22.911Z,1009.04
2023-04-26T02:55:22.938Z,1009.05
2023-04-26T02:56:22.974Z,1009.09
2023-04-26T02:57:22.886Z,1009.05
2023-04-26T02:58:22.901Z,1009.03
2023-04-26T02:59:22.885Z,1009.06
2023-04-26T03:00:22.877Z,1009.03
2023-04-26T03:01:22.912Z,1009.05
2023-04-26T03:02:22.954Z,1009.04
2023-04-26T03:03:23.200Z,1009.07
2023-04-26T03:04:22.874Z,1009.01
2023-04-26T03:05:22.832Z,1009.07
2023-04-26T03:06:22.841Z,1009.07
2023-04-26T03:07:22.839Z,1009.11
2023-04-26T03:08:22.836Z,1009.07
2023-04-26T03:09:22.836Z,1009.07
2023-04-26T03:10:23.407Z,1009.07
2023-04-26T03:11:22.793Z,1009.06
2023-04-26T03:12:22.790Z,1009.08
2023-04-26T03:13:22.782Z,1009.09
2023-04-26T03:14:22.790Z,1009.15
2023-04-26T03:15:22.793Z,1009.12
2023-04-26T03:16:22.819Z,1009.13
2023-04-26T03:17:22.823Z,1009.11
2023-04-26T03:18:22.777Z,1009.10
2023-04-26T03:19:22.739Z,1009.14
2023-04-26T03:20:22.734Z,1009.11
2023-04-26T03:21:22.750Z,1009.08
2023-04-26T03:22:22.742Z,1009.08
2023-04-26T03:23:22.744Z,1009.06
2023-04-26T03:24:22.732Z,1009.04
2023-04-26T03:25:22.734Z,1009.09
2023-04-26T03:26:22.706Z,1009.08
2023-04-26T03:27:22.699Z,1009.07
2023-04-26T03:28:22.701Z,1009.07
2023-04-26T03:29:22.691Z,1009.10
2023-04-26T03:30:22.824Z,1009.11
2023-04-26T03:31:22.708Z,1009.13
2023-04-26T03:32:22.659Z,1009.13
2023-04-26T03:33:22.647Z,1009.12
2023-04-26T03:34:22.647Z,1009.15
2023-04-26T03:35:22.646Z,1009.18
2023-04-26T03:36:22.634Z,1009.17
2023-04-26T03:37:22.650Z,1009.14
2023-04-26T03:38:22.636Z,1009.16
2023-04-26T03:39:22.624Z,1009.17
2023-04-26T03:40:22.626Z,1009.15
2023-04-26T03:41:22.594Z,1009.13
2023-04-26T03:42:22.591Z,1009.20
2023-04-26T03:43:22.578Z,1009.20
2023-04-26T03:44:22.582Z,1009.17
2023-04-26T03:45:22.572Z,1009.20
2023-04-26T03:46:22.817Z,1009.22
2023-04-26T03:47:22.587Z,1009.24
2023-04-26T03:48:22.541Z,1009.22
2023-04-26T03:49:22.551Z,1009.22
2023-04-26T03:50:22.543Z,1009.23
2023-04-26T03:51:22.534Z,1009.25
2023-04-26T03:52:22.535Z,1009.24
2023-04-26T03:53:22.514Z,1009.22
2023-04-26T03:54:22.522Z,1009.24
2023-04-26T03:55:22.488Z,1009.30
2023-04-26T03:56:22.489Z,1009.30
2023-04-26T03:57:22.482Z,1009.28
2023-04-26T03:58:22.472Z,1009.25
2023-04-26T03:59:22.470Z,1009.32
2023-04-26T04:00:22.459Z,1009.33
2023-04-26T04:01:22.497Z,1009.30
2023-04-26T04:02:22.548Z,1009.32
2023-04-26T04:03:22.578Z,1009.33
2023-04-26T04:04:22.870Z,1009.31
2023-04-26T04:05:22.489Z,1009.30
2023-04-26T04:06:22.439Z,1009.32
2023-04-26T04:07:22.427Z,1009.34
2023-04-26T04:08:22.424Z,1009.37
2023-04-26T04:09:22.391Z,1009.32
2023-04-26T04:10:22.399Z,1009.32
2023-04-26T04:11:22.389Z,1009.39
2023-04-26T04:12:22.388Z,1009.36
2023-04-26T04:13:22.373Z,1009.36
2023-04-26T04:14:22.395Z,1009.39
2023-04-26T04:15:22.395Z,1009.41
2023-04-26T04:16:22.435Z,1009.36
2023-04-26T04:17:22.362Z,1009.39
2023-04-26T04:18:22.348Z,1009.37
2023-04-26T04:19:22.327Z,1009.36
2023-04-26T04:20:22.313Z,1009.43
2023-04-26T04:21:22.326Z,1009.37
2023-04-26T04:22:22.325Z,1009.43
2023-04-26T04:23:22.310Z,1009.45
2023-04-26T04:24:22.313Z,1009.42
2023-04-26T04:25:22.341Z,1009.40
2023-04-26T04:26:22.333Z,1009.38
2023-04-26T04:27:22.289Z,1009.40
2023-04-26T04:28:22.271Z,1009.42
2023-04-26T04:29:22.264Z,1009.42
2023-04-26T04:30:22.257Z,1009.45
2023-04-26T04:31:22.262Z,1009.46
2023-04-26T04:32:22.330Z,1009.43
2023-04-26T04:33:22.219Z,1009.49
2023-04-26T04:34:22.229Z,1009.45
2023-04-26T04:35:22.256Z,1009.43
2023-04-26T04:36:22.224Z,1009.48
2023-04-26T04:37:22.202Z,1009.47
2023-04-26T04:38:22.265Z,1009.44
2023-04-26T04:39:22.197Z,1009.49
2023-04-26T04:40:22.228Z,1009.53
2023-04-26T04:41:22.258Z,1009.48
2023-04-26T04:42:22.184Z,1009.51
2023-04-26T04:43:22.203Z,1009.51
2023-04-26T04:44:22.178Z,1009.48
2023-04-26T04:45:22.211Z,1009.50
2023-04-26T04:46:22.189Z,1009.58
2023-04-26T04:47:22.148Z,1009.53
2023-04-26T04:48:22.140Z,1009.56
2023-04-26T04:49:22.138Z,1009.54
2023-04-26T04:50:22.161Z,1009.60
2023-04-26T04:51:22.143Z,1009.58
2023-04-26T04:52:22.114Z,1009.59
2023-04-26T04:53:22.087Z,1009.60
2023-04-26T04:54:22.109Z,1009.57
2023-04-26T04:55:22.177Z,1009.65
2023-04-26T04:56:22.100Z,1009.70
2023-04-26T04:57:22.067Z,1009.63
2023-04-26T04:58:22.077Z,1009.64
2023-04-26T04:59:22.074Z,1009.71
2023-04-26T05:00:22.182Z,1009.66
2023-04-26T05:01:22.077Z,1009.72
2023-04-26T05:02:22.184Z,1009.70
2023-04-26T05:03:22.230Z,1009.73
2023-04-26T05:04:22.342Z,1009.75
2023-04-26T05:05:22.039Z,1009.74
2023-04-26T05:06:22.083Z,1009.71
2023-04-26T05:07:23.289Z,1009.72
2023-04-26T05:08:21.999Z,1009.71
2023-04-26T05:09:22.010Z,1009.78
2023-04-26T05:10:22.009Z,1009.80
2023-04-26T05:11:21.976Z,1009.72
2023-04-26T05:12:21.976Z,1009.72
2023-04-26T05:13:22.012Z,1009.74
2023-04-26T05:14:21.983Z,1009.74
2023-04-26T05:15:21.986Z,1009.80
2023-04-26T05:16:22.013Z,1009.74
2023-04-26T05:17:21.926Z,1009.79
2023-04-26T05:18:21.949Z,1009.81
2023-04-26T05:19:21.921Z,1009.79
2023-04-26T05:20:21.986Z,1009.83
2023-04-26T05:21:21.940Z,1009.87
2023-04-26T05:22:21.916Z,1009.83
2023-04-26T05:23:21.915Z,1009.88
2023-04-26T05:24:21.902Z,1009.84
2023-04-26T05:25:22.563Z,1009.92
2023-04-26T05:26:21.886Z,1009.86
2023-04-26T05:27:21.883Z,1009.90
2023-04-26T05:28:21.885Z,1009.89
2023-04-26T05:29:21.881Z,1009.95
2023-04-26T05:30:21.880Z,1009.88
2023-04-26T05:31:21.907Z,1009.96
2023-04-26T05:32:21.874Z,1009.96
2023-04-26T05:33:21.825Z,1009.95
2023-04-26T05:34:21.879Z,1009.94
2023-04-26T05:35:21.839Z,1009.96
2023-04-26T05:36:21.848Z,1009.95
2023-04-26T05:37:21.865Z,1009.99
2023-04-26T05:38:21.910Z,1010.00
2023-04-26T05:39:21.800Z,1010.05
2023-04-26T05:40:21.791Z,1009.97
2023-04-26T05:41:21.781Z,1010.02
2023-04-26T05:42:21.778Z,1010.04
2023-04-26T05:43:21.768Z,1010.01
2023-04-26T05:44:21.787Z,1010.08
2023-04-26T05:45:22.422Z,1010.06
2023-04-26T05:46:21.892Z,1010.11
2023-04-26T05:47:21.794Z,1010.08
2023-04-26T05:48:21.791Z,1010.09
2023-04-26T05:49:21.750Z,1010.08
2023-04-26T05:50:21.801Z,1010.10
2023-04-26T05:51:21.773Z,1010.12
2023-04-26T05:52:21.756Z,1010.12
2023-04-26T05:53:21.714Z,1010.13
2023-04-26T05:54:21.730Z,1010.05
2023-04-26T05:55:21.686Z,1010.14
2023-04-26T05:56:21.689Z,1010.15
2023-04-26T05:57:21.702Z,1010.27
2023-04-26T05:58:21.666Z,1010.36
2023-04-26T05:59:28.946Z,1010.44
2023-04-26T06:01:25.978Z,1010.52
2023-04-26T06:02:25.812Z,1010.50
2023-04-26T06:04:29.868Z,1010.56
2023-04-26T06:05:29.929Z,1010.62
2023-04-26T06:07:33.714Z,1010.55
2023-04-26T06:08:33.685Z,1010.49
2023-04-26T06:10:26.676Z,1010.44
2023-04-26T06:11:26.608Z,1010.45
2023-04-26T06:13:30.619Z,1010.50
2023-04-26T06:14:31.042Z,1010.46
2023-04-26T06:16:34.637Z,1010.45
2023-04-26T06:17:34.695Z,1010.46
2023-04-26T06:19:27.741Z,1010.49
2023-04-26T06:20:27.765Z,1010.52
2023-04-26T06:22:31.936Z,1010.57
2023-04-26T06:23:31.759Z,1010.51
2023-04-26T06:25:35.836Z,1010.49
2023-04-26T06:26:35.763Z,1010.49
2023-04-26T06:28:42.097Z,1010.50
2023-04-26T06:29:39.770Z,1010.52
2023-04-26T06:31:43.823Z,1010.56
2023-04-26T06:32:43.847Z,1010.61
2023-04-26T06:34:47.808Z,1010.58
2023-04-26T06:35:47.819Z,1010.59
2023-04-26T06:37:51.848Z,1010.60
2023-04-26T06:38:51.839Z,1010.62
2023-04-26T06:40:44.824Z,1010.65
2023-04-26T06:41:44.787Z,1010.67
2023-04-26T06:43:48.800Z,1010.68
2023-04-26T06:44:48.798Z,1010.69
2023-04-26T06:46:42.727Z,1010.67
2023-04-26T06:47:42.038Z,1010.68
2023-04-26T06:49:46.015Z,1010.70
2023-04-26T06:50:46.074Z,1010.66
2023-04-26T06:52:50.076Z,1010.62
2023-04-26T06:53:50.145Z,1010.61
2023-04-26T06:55:43.184Z,1010.69
2023-04-26T06:56:43.284Z,1010.63
2023-04-26T06:58:47.223Z,1010.70
2023-04-26T06:59:47.324Z,1010.61
2023-04-26T07:01:51.243Z,1010.57
2023-04-26T07:02:51.405Z,1010.63
2023-04-26T07:04:55.354Z,1010.73
2023-04-26T07:05:55.211Z,1010.73
2023-04-26T07:07:59.255Z,1010.76
2023-04-26T07:08:59.566Z,1010.77
2023-04-26T07:10:52.194Z,1010.62
2023-04-26T07:11:52.202Z,1010.74
2023-04-26T07:13:45.338Z,1010.77
2023-04-26T07:14:45.517Z,1010.66
2023-04-26T07:16:49.361Z,1010.66
2023-04-26T07:17:49.387Z,1010.66
2023-04-26T07:19:55.546Z,1010.78
2023-04-26T07:20:53.391Z,1010.81
2023-04-26T07:22:57.408Z,1010.74
2023-04-26T07:23:57.405Z,1010.73
2023-04-26T07:26:01.406Z,1010.80
2023-04-26T07:27:01.525Z,1010.77
2023-04-26T07:28:54.554Z,1010.80
2023-04-26T07:29:54.545Z,1010.80
2023-04-26T07:31:58.564Z,1010.82
2023-04-26T07:32:58.677Z,1010.81
2023-04-26T07:35:02.598Z,1010.87
2023-04-26T07:36:02.588Z,1010.73
2023-04-26T07:38:06.651Z,1010.84
2023-04-26T07:39:06.661Z,1010.91
2023-04-26T07:40:59.583Z,1010.90
2023-04-26T07:41:59.652Z,1010.89
2023-04-26T07:44:03.707Z,1010.89
2023-04-26T07:45:03.615Z,1010.78
2023-04-26T07:47:07.648Z,1010.79
2023-04-26T07:48:07.689Z,1010.80
2023-04-26T07:50:00.634Z,1011.00
2023-04-26T07:51:00.586Z,1010.84
2023-04-26T07:53:04.630Z,1011.02
2023-04-26T07:54:04.633Z,1010.94
2023-04-26T07:55:57.792Z,1010.78
2023-04-26T07:56:57.801Z,1010.98
2023-04-26T07:59:02.377Z,1010.97
2023-04-26T08:00:02.376Z,1010.89
2023-04-26T08:01:02.372Z,1011.00
2023-04-26T08:02:02.420Z,1010.90
2023-04-26T08:03:02.483Z,1010.84
2023-04-26T08:04:02.982Z,1010.83
2023-04-26T08:05:02.618Z,1010.90
2023-04-26T08:06:02.629Z,1010.84
2023-04-26T08:07:02.415Z,1010.87
2023-04-26T08:08:02.425Z,1010.95
2023-04-26T08:09:02.468Z,1010.94
2023-04-26T08:10:02.492Z,1010.93
2023-04-26T08:11:02.451Z,1010.93
2023-04-26T08:12:02.497Z,1010.92
2023-04-26T08:13:02.470Z,1010.97
2023-04-26T08:14:02.513Z,1010.95
2023-04-26T08:15:03.202Z,1010.99
2023-04-26T08:16:02.525Z,1010.90
2023-04-26T08:17:02.504Z,1010.88
2023-04-26T08:18:02.575Z,1010.87
2023-04-26T08:19:02.527Z,1010.86
2023-04-26T08:20:02.525Z,1010.89
2023-04-26T08:21:02.525Z,1010.92
2023-04-26T08:22:02.815Z,1010.94
2023-04-26T08:23:02.554Z,1010.98
2023-04-26T08:24:02.549Z,1010.93
2023-04-26T08:25:02.539Z,1010.97
2023-04-26T08:26:02.534Z,1010.90
2023-04-26T08:27:02.548Z,1010.94
2023-04-26T08:28:02.577Z,1010.89
2023-04-26T08:29:02.551Z,1010.94
2023-04-26T08:30:02.544Z,1010.94
2023-04-26T08:31:02.630Z,1010.95
2023-04-26T08:32:02.590Z,1010.91
2023-04-26T08:33:02.633Z,1010.95
2023-04-26T08:34:02.561Z,1011.00
2023-04-26T08:35:02.579Z,1010.97
2023-04-26T08:36:02.557Z,1010.97
2023-04-26T08:37:02.570Z,1011.01
2023-04-26T08:38:02.546Z,1010.93
2023-04-26T08:39:02.553Z,1010.97
2023-04-26T08:40:02.595Z,1010.98
2023-04-26T08:41:02.574Z,1010.98
2023-04-26T08:42:02.542Z,1011.01
2023-04-26T08:43:02.553Z,1010.95
2023-04-26T08:44:02.545Z,1010.98
2023-04-26T08:45:02.612Z,1010.96
2023-04-26T08:46:02.564Z,1010.97
2023-04-26T08:47:02.540Z,1010.91
2023-04-26T08:48:04.445Z,1010.95
2023-04-26T08:49:02.551Z,1010.92
2023-04-26T08:50:02.543Z,1010.96
2023-04-26T08:51:02.555Z,1010.92
2023-04-26T08:52:02.558Z,1010.87
2023-04-26T08:53:02.551Z,1010.90
2023-04-26T08:54:04.683Z,1010.92
2023-04-26T08:55:02.536Z,1010.90
2023-04-26T08:56:02.536Z,1010.91
2023-04-26T08:57:02.536Z,1010.90
2023-04-26T08:58:02.522Z,1010.89
2023-04-26T08:59:02.525Z,1010.96
2023-04-26T09:00:02.545Z,1010.87
2023-04-26T09:01:02.523Z,1010.90
2023-04-26T09:02:02.689Z,1010.95
2023-04-26T09:03:02.727Z,1010.93
2023-04-26T09:04:02.979Z,1010.97
2023-04-26T09:05:02.915Z,1010.93
2023-04-26T09:06:06.231Z,1010.94
2023-04-26T09:07:02.503Z,1010.96
2023-04-26T09:08:03.649Z,1010.93
2023-04-26T09:09:02.512Z,1010.91
2023-04-26T09:10:02.488Z,1010.92
2023-04-26T09:11:02.496Z,1010.88
2023-04-26T09:12:02.505Z,1010.89
2023-04-26T09:13:02.516Z,1010.91
2023-04-26T09:14:02.506Z,1010.88
2023-04-26T09:15:02.487Z,1010.93
2023-04-26T09:16:04.208Z,1010.88
2023-04-26T09:17:02.495Z,1010.84
2023-04-26T09:18:02.542Z,1010.91
2023-04-26T09:19:02.483Z,1010.86
2023-04-26T09:20:02.530Z,1010.87
2023-04-26T09:21:02.474Z,1010.88
2023-04-26T09:22:02.470Z,1010.95
2023-04-26T09:23:02.472Z,1010.93
2023-04-26T09:24:02.499Z,1010.91
2023-04-26T09:25:02.489Z,1010.87
2023-04-26T09:26:02.460Z,1010.87
2023-04-26T09:27:02.463Z,1010.92
2023-04-26T09:28:02.486Z,1010.89
2023-04-26T09:29:02.465Z,1010.90
2023-04-26T09:30:02.483Z,1010.94
2023-04-26T09:31:02.463Z,1010.91
2023-04-26T09:32:02.479Z,1010.95
2023-04-26T09:33:02.473Z,1010.95
2023-04-26T09:34:02.456Z,1010.95
2023-04-26T09:35:02.442Z,1010.99
2023-04-26T09:36:02.497Z,1010.95
2023-04-26T09:37:02.447Z,1010.95
2023-04-26T09:38:07.835Z,1010.87
2023-04-26T09:39:02.444Z,1010.91
2023-04-26T09:40:02.432Z,1010.86
2023-04-26T09:41:02.439Z,1010.86
2023-04-26T09:42:02.419Z,1010.89
2023-04-26T09:43:02.420Z,1010.90
2023-04-26T09:44:02.414Z,1010.91
2023-04-26T09:45:02.434Z,1010.93
2023-04-26T09:46:02.404Z,1010.92
2023-04-26T09:47:02.465Z,1010.96
2023-04-26T09:48:02.476Z,1010.94
2023-04-26T09:49:02.411Z,1010.96
2023-04-26T09:50:02.402Z,1010.96
2023-04-26T09:51:02.400Z,1010.95
2023-04-26T09:52:02.446Z,1010.96
2023-04-26T09:53:02.408Z,1010.96
2023-04-26T09:54:02.399Z,1010.97
2023-04-26T09:55:02.380Z,1010.95
2023-04-26T09:56:02.377Z,1010.90
2023-04-26T09:57:02.377Z,1010.86
2023-04-26T09:58:02.380Z,1010.87
2023-04-26T09:59:02.411Z,1010.85
2023-04-26T10:00:02.392Z,1010.89
2023-04-26T10:01:02.394Z,1010.91
2023-04-26T10:02:02.357Z,1010.85
2023-04-26T10:03:02.504Z,1010.87
2023-04-26T10:04:02.527Z,1010.87
2023-04-26T10:05:02.575Z,1010.91
2023-04-26T10:06:02.345Z,1010.90
2023-04-26T10:07:02.352Z,1010.89
2023-04-26T10:08:02.342Z,1010.91
2023-04-26T10:09:02.341Z,1010.89
2023-04-26T10:10:02.355Z,1010.91
2023-04-26T10:11:02.339Z,1010.86
2023-04-26T10:12:02.339Z,1010.91
2023-04-26T10:13:02.336Z,1010.87
2023-04-26T10:14:02.340Z,1010.88
2023-04-26T10:15:02.320Z,1010.87
2023-04-26T10:16:02.519Z,1010.94
2023-04-26T10:17:02.428Z,1010.92
2023-04-26T10:18:02.428Z,1010.92
2023-04-26T10:19:02.310Z,1010.94
2023-04-26T10:20:02.309Z,1010.94
2023-04-26T10:21:02.338Z,1011.00
2023-04-26T10:22:02.309Z,1010.92
2023-04-26T10:23:02.299Z,1010.87
2023-04-26T10:24:02.318Z,1010.83
2023-04-26T10:25:02.285Z,1010.84
2023-04-26T10:26:02.284Z,1010.88
2023-04-26T10:27:02.287Z,1010.82
2023-04-26T10:28:02.292Z,1010.81
2023-04-26T10:29:03.357Z,1010.85
2023-04-26T10:30:02.279Z,1010.89
2023-04-26T10:31:02.277Z,1010.83
2023-04-26T10:32:02.362Z,1010.89
2023-04-26T10:33:02.294Z,1010.96
2023-04-26T10:34:02.261Z,1010.93
2023-04-26T10:35:02.268Z,1010.91
2023-04-26T10:36:02.270Z,1010.89
2023-04-26T10:37:02.258Z,1010.90
2023-04-26T10:38:02.333Z,1010.86
2023-04-26T10:39:02.268Z,1010.90
2023-04-26T10:40:02.261Z,1010.91
2023-04-26T10:41:02.254Z,1010.94
2023-04-26T10:42:02.249Z,1010.93
2023-04-26T10:43:02.242Z,1010.92
2023-04-26T10:44:02.230Z,1010.97
2023-04-26T10:45:02.232Z,1010.92
2023-04-26T10:46:02.284Z,1010.94
2023-04-26T10:47:02.221Z,1010.94
2023-04-26T10:48:02.236Z,1010.88
2023-04-26T10:49:02.226Z,1010.90
2023-04-26T10:50:03.654Z,1010.92
2023-04-26T10:51:02.660Z,1010.94
2023-04-26T10:52:02.236Z,1010.91
2023-04-26T10:53:02.216Z,1010.92
2023-04-26T10:54:02.212Z,1010.90
2023-04-26T10:55:02.204Z,1010.92
2023-04-26T10:56:02.210Z,1010.92
2023-04-26T10:57:02.189Z,1010.92
2023-04-26T10:58:02.190Z,1010.85
2023-04-26T10:59:02.796Z,1010.94
2023-04-26T11:00:02.187Z,1010.91
2023-04-26T11:01:02.220Z,1010.92
2023-04-26T11:02:02.173Z,1010.97
2023-04-26T11:03:02.249Z,1010.93
2023-04-26T11:04:02.328Z,1010.94
2023-04-26T11:05:02.213Z,1010.94
2023-04-26T11:06:02.169Z,1010.96
2023-04-26T11:07:02.155Z,1010.98
2023-04-26T11:08:02.152Z,1010.96
2023-04-26T11:09:02.165Z,1010.95
2023-04-26T11:10:02.175Z,1010.96
2023-04-26T11:11:02.189Z,1010.93
2023-04-26T11:12:02.141Z,1011.01
2023-04-26T11:13:02.132Z,1010.99
2023-04-26T11:14:02.127Z,1011.01
2023-04-26T11:15:02.130Z,1011.01
2023-04-26T11:16:02.143Z,1011.02
2023-04-26T11:17:02.133Z,1011.03
2023-04-26T11:18:02.155Z,1011.03
2023-04-26T11:19:02.119Z,1011.04
2023-04-26T11:20:02.108Z,1010.96
2023-04-26T11:21:02.116Z,1010.97
2023-04-26T11:22:02.105Z,1011.00
2023-04-26T11:23:02.107Z,1011.03
2023-04-26T11:24:02.091Z,1010.99
2023-04-26T11:25:02.088Z,1010.99
2023-04-26T11:26:02.085Z,1011.04
2023-04-26T11:27:02.108Z,1011.01
2023-04-26T11:28:02.192Z,1011.04
2023-04-26T11:29:02.079Z,1011.03
2023-04-26T11:30:02.075Z,1011.03
2023-04-26T11:31:02.144Z,1011.04
2023-04-26T11:32:02.061Z,1011.03
2023-04-26T11:33:02.083Z,1011.02
2023-04-26T11:34:02.073Z,1011.04
2023-04-26T11:35:02.053Z,1010.98
2023-04-26T11:36:02.052Z,1011.03
2023-04-26T11:37:02.051Z,1010.95
2023-04-26T11:38:02.059Z,1010.99
2023-04-26T11:39:02.044Z,1010.99
2023-04-26T11:40:02.036Z,1011.01
2023-04-26T11:41:02.032Z,1011.02
2023-04-26T11:42:02.197Z,1010.98
2023-04-26T11:43:02.037Z,1010.99
2023-04-26T11:44:02.131Z,1011.00
2023-04-26T11:45:02.032Z,1011.00
2023-04-26T11:46:02.027Z,1011.01
2023-04-26T11:47:02.211Z,1011.02
2023-04-26T11:48:02.051Z,1011.07
2023-04-26T11:49:02.025Z,1011.05
2023-04-26T11:50:02.035Z,1011.11
2023-04-26T11:51:02.007Z,1011.16
2023-04-26T11:52:02.004Z,1011.12
2023-04-26T11:53:01.998Z,1011.12
2023-04-26T11:54:02.006Z,1011.14
2023-04-26T11:55:01.994Z,1011.18
2023-04-26T11:56:02.002Z,1011.16
2023-04-26T11:57:01.983Z,1011.17
2023-04-26T11:58:02.025Z,1011.15
2023-04-26T11:59:02.000Z,1011.18
2023-04-26T12:00:01.976Z,1011.18
2023-04-26T12:01:02.002Z,1011.19
2023-04-26T12:02:02.025Z,1011.16
2023-04-26T12:03:02.092Z,1011.18
2023-04-26T12:04:02.072Z,1011.21
2023-04-26T12:05:01.997Z,1011.12
2023-04-26T12:06:01.967Z,1011.17
2023-04-26T12:07:01.952Z,1011.13
2023-04-26T12:08:01.950Z,1011.15
2023-04-26T12:09:01.945Z,1011.10
2023-04-26T12:10:01.946Z,1011.11
2023-04-26T12:11:02.046Z,1011.17
2023-04-26T12:12:01.937Z,1011.16
2023-04-26T12:13:01.918Z,1011.20
2023-04-26T12:14:01.951Z,1011.12
2023-04-26T12:15:01.916Z,1011.13
2023-04-26T12:16:03.853Z,1011.16
2023-04-26T12:17:01.967Z,1011.16
2023-04-26T12:18:01.986Z,1011.16
2023-04-26T12:19:01.907Z,1011.20
2023-04-26T12:20:01.903Z,1011.18
2023-04-26T12:21:01.904Z,1011.14
2023-04-26T12:22:03.273Z,1011.16
2023-04-26T12:23:01.895Z,1011.21
2023-04-26T12:24:01.882Z,1011.16
2023-04-26T12:25:01.887Z,1011.19
2023-04-26T12:26:01.892Z,1011.24
2023-04-26T12:27:02.705Z,1011.18
2023-04-26T12:28:01.881Z,1011.21
2023-04-26T12:29:01.874Z,1011.16
2023-04-26T12:30:01.886Z,1011.23
2023-04-26T12:31:01.867Z,1011.23
2023-04-26T12:32:02.039Z,1011.17
2023-04-26T12:33:15.563Z,1011.21
2023-04-26T12:34:01.852Z,1011.29
2023-04-26T12:35:01.855Z,1011.19
2023-04-26T12:36:01.905Z,1011.19
2023-04-26T12:37:01.842Z,1011.18
2023-04-26T12:38:01.837Z,1011.20
2023-04-26T12:39:01.842Z,1011.16
2023-04-26T12:40:01.830Z,1011.19
2023-04-26T12:41:01.833Z,1011.19
2023-04-26T12:42:01.825Z,1011.19
2023-04-26T12:43:01.825Z,1011.16
2023-04-26T12:44:02.046Z,1011.16
2023-04-26T12:45:01.819Z,1011.19
2023-04-26T12:46:01.916Z,1011.18
2023-04-26T12:47:01.813Z,1011.16
2023-04-26T12:48:01.855Z,1011.18
2023-04-26T12:49:01.810Z,1011.20